• Join FlightAware (Why Join?)
  • Login
  • US Flag 
05:35AM EDT


 

Airport Tracker/Info


-or-


 

Live Flight TrackerFlight Track Log ✈ UAL4335 ✈ 18-Apr-2013 ✈ KEWR - KCVG

Flight Track Log - Related Links

Times and Time Zones

All times are in EDT time to prevent confusion due to time zone crossing. See the UAL4335 flight status page for this flight to view local times or setup timezone preferences in your user account.

Time Position Orientation Groundspeed Altitude Reporting Facility
EDT Latitude Longitude Course Direction KTS MPH feet Rate Location/Type
03:57PM 40.6667 -74.1833 237° Southwest 162 186 1,300  Level New York TRACON
03:58PM 40.6333 -74.2500 237° Southwest 234 269 2,800 2,100 Climbing New York TRACON
03:59PM 40.6333 -74.3333 270° West 239 275 5,600 2,280 Climbing New York TRACON
04:01PM 40.6453 -74.5372 274° West 260 299 10,100 1,560 Climbing New York Center
04:02PM 40.6542 -74.6500 276° West 286 329 10,700 1,020 Climbing New York Center
04:03PM 40.6625 -74.7708 275° West 331 381 12,200 1,620 Climbing New York Center
04:04PM 40.6711 -74.8861 276° West 331 381 14,100 1,500 Climbing New York Center
04:05PM 40.6794 -75.0069 275° West 331 381 15,300 1,080 Climbing New York Center
04:06PM 40.6625 -75.1264 259° West 330 380 16,300 1,020 Climbing New York Center
04:07PM 40.6128 -75.2325 238° Southwest 330 380 17,400 900 Climbing New York Center
04:08PM 40.5628 -75.3414 239° Southwest 342 394 18,200 900 Climbing New York Center
04:09PM 40.5125 -75.4528 239° Southwest 349 402 19,200 960 Climbing New York Center
04:10PM 40.4619 -75.5667 240° Southwest 354 407 20,200 960 Climbing New York Center
04:11PM 40.4094 -75.6800 239° Southwest 364 419 21,200 960 Climbing New York Center
04:12PM 40.3544 -75.7989 239° Southwest 374 430 22,200 960 Climbing New York Center
04:13PM 40.3000 -75.9036 236° Southwest 381 438 23,200 960 Climbing New York Center
04:14PM 40.2447 -76.0219 239° Southwest 381 438 24,200 960 Climbing New York Center
04:15PM 40.1914 -76.1403 239° Southwest 381 438 25,200 960 Climbing New York Center
04:17PM 40.1008 -76.3400 239° Southwest 381 438 26,800 960 Climbing Washington Center
04:18PM 40.0458 -76.4586 239° Southwest 381 438 27,800 780 Climbing Washington Center
04:19PM 39.9931 -76.5636 237° Southwest 387 445 28,400 540 Climbing Washington Center
04:20PM 39.9378 -76.6847 239° Southwest 387 445 28,900 540 Climbing Washington Center
04:21PM 39.8742 -76.8161 238° Southwest 387 445 29,500 540 Climbing Washington Center
04:22PM 39.8167 -76.9394 239° Southwest 392 451 30,000 240 Climbing Washington Center
04:23PM 39.7567 -77.0653 238° Southwest 406 467 30,000  Level Washington Center
04:24PM 39.6967 -77.1961 239° Southwest 412 474 30,000  Level Washington Center
04:25PM 39.6325 -77.3294 238° Southwest 426 490 30,000  Level Washington Center
04:26PM 39.5722 -77.4572 239° Southwest 431 496 30,000  Level Washington Center
04:27PM 39.5097 -77.5875 238° Southwest 426 490 30,000  Level Washington Center
04:28PM 39.4492 -77.7175 239° Southwest 426 490 30,000  Level Washington Center
04:29PM 39.3883 -77.8444 238° Southwest 426 490 30,000  Level Washington Center
04:30PM 39.3336 -77.9797 242° Southwest 421 484 30,000  Level Washington Center
04:31PM 39.2789 -78.1172 243° Southwest 421 484 30,000  Level Washington Center
04:32PM 39.2258 -78.2522 243° Southwest 426 490 30,000  Level Washington Center
04:33PM 39.1708 -78.3839 242° Southwest 426 490 30,000  Level Washington Center
04:34PM 39.1219 -78.5053 243° Southwest 426 490 30,000  Level Washington Center
04:35PM 39.0708 -78.6394 244° Southwest 426 490 30,000  Level Washington Center
04:36PM 39.0153 -78.7708 241° Southwest 426 490 30,000  Level Washington Center
04:37PM 38.9636 -78.9047 244° Southwest 426 490 30,000  Level Washington Center
04:38PM 38.9408 -79.0531 259° West 421 484 30,000  Level Washington Center
04:39PM 38.9258 -79.2072 263° West 427 491 30,000  Level Washington Center
04:40PM 38.9086 -79.3611 262° West 432 497 30,000  Level Washington Center
04:41PM 38.8911 -79.5122 262° West 432 497 30,000  Level Washington Center
04:42PM 38.8708 -79.6872 262° West 451 519 30,000  Level Washington Center
04:43PM 38.8531 -79.8408 262° West 446 513 30,000  Level Washington Center
04:44PM 38.8356 -79.9783 261° West 441 507 30,000  Level Washington Center
04:45PM 38.8053 -80.2164 261° West 434 499 30,000  Level Indianapolis Center
04:46PM 38.7856 -80.3706 261° West 437 503 30,000  Level Indianapolis Center
04:47PM 38.7669 -80.5233 261° West 434 499 30,000  Level Indianapolis Center
04:49PM 38.7489 -80.6772 261° West 437 503 30,000  Level Indianapolis Center
04:50PM 38.7294 -80.8286 261° West 432 497 30,000  Level Indianapolis Center
04:51PM 38.7106 -80.9808 261° West 431 496 30,000  Level Indianapolis Center
04:52PM 38.6878 -81.1617 261° West 429 494 30,000  Level Indianapolis Center
04:53PM 38.6672 -81.3117 260° West 426 490 30,000 -480 Level Indianapolis Center
04:54PM 38.6489 -81.4497 260° West 423 487 29,100 -1,020 Descending Indianapolis Center
04:55PM 38.6264 -81.6222 261° West 421 484 27,900 -1,080 Descending Indianapolis Center
04:56PM 38.6067 -81.7733 261° West 435 501 26,900 -1,020 Descending Indianapolis Center
04:57PM 38.5858 -81.9286 260° West 441 507 25,900 -1,020 Descending Indianapolis Center
04:58PM 38.5642 -82.0869 260° West 445 512 24,900 -960 Descending Indianapolis Center
04:59PM 38.5436 -82.2356 260° West 433 498 24,000 -480 Descending Indianapolis Center
05:00PM 38.5225 -82.3850 260° West 427 491 24,000 -420 Level Indianapolis Center
05:01PM 38.5019 -82.5308 260° West 417 480 23,200 -1,020 Descending Indianapolis Center
05:02PM 38.4956 -82.7000 267° West 424 488 22,000 -1,200 Descending Indianapolis Center
05:03PM 38.5092 -82.8436 277° West 412 474 20,800 -1,380 Descending Indianapolis Center
05:04PM 38.5231 -82.9778 278° West 393 452 19,200 -1,680 Descending Indianapolis Center
05:05PM 38.5339 -83.0908 277° West 342 394 17,400 -1,680 Descending Indianapolis Center
05:06PM 38.5453 -83.2033 277° West 323 372 15,800 -1,560 Descending Indianapolis Center
05:07PM 38.5569 -83.3142 278° West 318 366 14,200 -1,740 Descending Indianapolis Center
05:08PM 38.5692 -83.4467 277° West 322 371 12,300 -1,800 Descending Indianapolis Center
05:09PM 38.5792 -83.5536 277° West 307 353 10,600 -1,140 Descending Indianapolis Center
05:10PM 38.5897 -83.6550 278° West 293 337 10,000 -300 Descending Indianapolis Center
05:11PM 38.5986 -83.7575 276° West 292 336 10,000  Level Indianapolis Center
05:12PM 38.6081 -83.8569 277° West 285 328 10,000  Level Indianapolis Center
05:13PM 38.6322 -83.9581 287° West 307 353 10,000 -60 Level Indianapolis Center
05:14PM 38.6828 -84.0575 303° West 303 349 9,900 -60 Descending Indianapolis Center
05:15PM 38.7306 -84.1475 304° West 303 349 9,900  Level Indianapolis Center
05:16PM 38.7781 -84.2392 304° West 305 351 9,900 -60 Level Indianapolis Center
05:17PM 38.8253 -84.3300 304° West 304 350 9,800 -540 Descending Indianapolis Center
05:18PM 38.8653 -84.4092 303° West 272 313 8,900 -540 Descending Indianapolis Center
05:19PM 38.9000 -84.4833 301° West 266 306 8,900  Level Cincinnati TRACON
05:20PM 38.9667 -84.5333 330° Northwest 304 350 8,900 -540 Level Cincinnati TRACON
05:21PM 39.0500 -84.5333 360° North 295 339 7,900 -1,200 Descending Cincinnati TRACON
05:22PM 39.1167 -84.5333 360° North 246 283 6,700 -1,680 Descending Cincinnati TRACON
05:22PM 39.1439 -84.5431 345° North 276 318 5,800 -2,100 Descending Indianapolis Center
05:23PM 39.2139 -84.5514 355° North 267 307 3,800 -1,260 Descending Indianapolis Center
05:25PM 39.2328 -84.6231 289° West 266 306 3,200 -960 Descending Indianapolis Center
05:25PM 39.2000 -84.6500 213° Southwest 186 214 2,400 -1,680 Descending Cincinnati TRACON